sensor_id;sensor_type;location;lat;lon;timestamp;P1;durP1;ratioP1;P2;durP2;ratioP2
49310;SDS011;35177;45.900;5.946;2023-06-26T00:00:39;6.95;;;5.25;;
49310;SDS011;35177;45.900;5.946;2023-06-26T00:03:04;8.32;;;5.63;;
49310;SDS011;35177;45.900;5.946;2023-06-26T00:05:30;6.75;;;5.35;;
49310;SDS011;35177;45.900;5.946;2023-06-26T00:07:55;5.90;;;5.07;;
49310;SDS011;35177;45.900;5.946;2023-06-26T00:10:21;7.03;;;5.40;;
49310;SDS011;35177;45.900;5.946;2023-06-26T00:12:47;7.38;;;5.22;;
49310;SDS011;35177;45.900;5.946;2023-06-26T00:15:12;7.22;;;5.25;;
49310;SDS011;35177;45.900;5.946;2023-06-26T00:17:38;6.70;;;5.38;;
49310;SDS011;35177;45.900;5.946;2023-06-26T00:20:04;8.68;;;6.00;;
49310;SDS011;35177;45.900;5.946;2023-06-26T00:22:33;7.38;;;5.10;;
49310;SDS011;35177;45.900;5.946;2023-06-26T00:24:59;6.18;;;5.22;;
49310;SDS011;35177;45.900;5.946;2023-06-26T00:27:24;7.13;;;5.75;;
49310;SDS011;35177;45.900;5.946;2023-06-26T00:29:49;7.38;;;5.75;;
49310;SDS011;35177;45.900;5.946;2023-06-26T00:32:17;6.30;;;5.57;;
49310;SDS011;35177;45.900;5.946;2023-06-26T00:34:43;7.28;;;5.32;;
49310;SDS011;35177;45.900;5.946;2023-06-26T00:37:08;6.93;;;5.32;;
49310;SDS011;35177;45.900;5.946;2023-06-26T00:39:34;8.38;;;5.40;;
49310;SDS011;35177;45.900;5.946;2023-06-26T00:41:59;7.90;;;5.82;;
49310;SDS011;35177;45.900;5.946;2023-06-26T00:44:25;8.00;;;5.47;;
49310;SDS011;35177;45.900;5.946;2023-06-26T00:46:50;6.55;;;5.00;;
49310;SDS011;35177;45.900;5.946;2023-06-26T00:49:16;9.55;;;5.93;;
49310;SDS011;35177;45.900;5.946;2023-06-26T00:51:42;7.85;;;5.15;;
49310;SDS011;35177;45.900;5.946;2023-06-26T00:54:08;9.00;;;5.85;;
49310;SDS011;35177;45.900;5.946;2023-06-26T00:56:34;7.55;;;5.70;;
49310;SDS011;35177;45.900;5.946;2023-06-26T00:59:00;8.35;;;5.75;;
49310;SDS011;35177;45.900;5.946;2023-06-26T01:01:25;8.70;;;6.15;;
49310;SDS011;35177;45.900;5.946;2023-06-26T01:03:51;9.13;;;5.65;;
49310;SDS011;35177;45.900;5.946;2023-06-26T01:06:19;23.05;;;6.28;;
49310;SDS011;35177;45.900;5.946;2023-06-26T01:08:46;9.18;;;6.05;;
49310;SDS011;35177;45.900;5.946;2023-06-26T01:11:13;7.68;;;5.82;;
49310;SDS011;35177;45.900;5.946;2023-06-26T01:13:39;8.68;;;6.32;;
49310;SDS011;35177;45.900;5.946;2023-06-26T01:16:07;9.65;;;6.07;;
49310;SDS011;35177;45.900;5.946;2023-06-26T01:18:34;7.57;;;5.68;;
49310;SDS011;35177;45.900;5.946;2023-06-26T01:21:02;7.25;;;5.65;;
49310;SDS011;35177;45.900;5.946;2023-06-26T01:26:14;7.65;;;5.32;;
49310;SDS011;35177;45.900;5.946;2023-06-26T01:28:43;9.93;;;6.35;;
49310;SDS011;35177;45.900;5.946;2023-06-26T01:31:10;10.95;;;6.07;;
49310;SDS011;35177;45.900;5.946;2023-06-26T01:33:37;9.85;;;6.90;;
49310;SDS011;35177;45.900;5.946;2023-06-26T01:36:05;8.38;;;6.28;;
49310;SDS011;35177;45.900;5.946;2023-06-26T01:38:31;10.77;;;6.10;;
49310;SDS011;35177;45.900;5.946;2023-06-26T01:40:57;7.50;;;5.95;;
49310;SDS011;35177;45.900;5.946;2023-06-26T01:47:12;8.02;;;6.32;;
49310;SDS011;35177;45.900;5.946;2023-06-26T01:49:16;12.00;;;5.80;;
49310;SDS011;35177;45.900;5.946;2023-06-26T01:51:52;8.07;;;5.85;;
49310;SDS011;35177;45.900;5.946;2023-06-26T01:54:23;9.05;;;6.07;;
49310;SDS011;35177;45.900;5.946;2023-06-26T01:56:52;9.15;;;6.50;;
49310;SDS011;35177;45.900;5.946;2023-06-26T01:59:19;8.73;;;5.88;;
49310;SDS011;35177;45.900;5.946;2023-06-26T02:01:47;6.32;;;5.30;;
49310;SDS011;35177;45.900;5.946;2023-06-26T02:04:12;7.72;;;6.18;;
49310;SDS011;35177;45.900;5.946;2023-06-26T02:06:38;7.57;;;5.55;;
49310;SDS011;35177;45.900;5.946;2023-06-26T02:09:03;12.70;;;7.13;;
49310;SDS011;35177;45.900;5.946;2023-06-26T02:11:29;7.38;;;5.93;;
49310;SDS011;35177;45.900;5.946;2023-06-26T02:13:54;9.73;;;5.43;;
49310;SDS011;35177;45.900;5.946;2023-06-26T02:16:20;8.68;;;5.60;;
49310;SDS011;35177;45.900;5.946;2023-06-26T02:18:45;11.10;;;6.05;;
49310;SDS011;35177;45.900;5.946;2023-06-26T02:21:11;10.57;;;6.28;;
49310;SDS011;35177;45.900;5.946;2023-06-26T02:23:36;8.32;;;6.18;;
49310;SDS011;35177;45.900;5.946;2023-06-26T02:26:02;9.15;;;6.43;;
49310;SDS011;35177;45.900;5.946;2023-06-26T02:28:28;8.10;;;6.50;;
49310;SDS011;35177;45.900;5.946;2023-06-26T02:30:55;8.57;;;6.70;;
49310;SDS011;35177;45.900;5.946;2023-06-26T02:33:21;10.10;;;6.80;;
49310;SDS011;35177;45.900;5.946;2023-06-26T02:35:47;10.18;;;6.03;;
49310;SDS011;35177;45.900;5.946;2023-06-26T02:38:12;9.55;;;6.70;;
49310;SDS011;35177;45.900;5.946;2023-06-26T02:40:38;9.00;;;5.93;;
49310;SDS011;35177;45.900;5.946;2023-06-26T02:43:03;11.25;;;6.97;;
49310;SDS011;35177;45.900;5.946;2023-06-26T02:45:29;9.43;;;6.32;;
49310;SDS011;35177;45.900;5.946;2023-06-26T02:47:54;10.82;;;5.85;;
49310;SDS011;35177;45.900;5.946;2023-06-26T02:50:20;8.48;;;5.93;;
49310;SDS011;35177;45.900;5.946;2023-06-26T02:52:45;9.80;;;6.20;;
49310;SDS011;35177;45.900;5.946;2023-06-26T02:55:13;11.60;;;6.53;;
49310;SDS011;35177;45.900;5.946;2023-06-26T02:57:38;8.80;;;6.53;;
49310;SDS011;35177;45.900;5.946;2023-06-26T03:00:04;10.27;;;6.50;;
49310;SDS011;35177;45.900;5.946;2023-06-26T03:02:33;8.05;;;6.22;;
49310;SDS011;35177;45.900;5.946;2023-06-26T03:04:58;8.95;;;6.60;;
49310;SDS011;35177;45.900;5.946;2023-06-26T03:07:24;10.50;;;6.22;;
49310;SDS011;35177;45.900;5.946;2023-06-26T03:09:49;13.07;;;6.07;;
49310;SDS011;35177;45.900;5.946;2023-06-26T03:12:14;10.93;;;6.50;;
49310;SDS011;35177;45.900;5.946;2023-06-26T03:14:40;9.07;;;6.40;;
49310;SDS011;35177;45.900;5.946;2023-06-26T03:17:05;8.68;;;6.30;;
49310;SDS011;35177;45.900;5.946;2023-06-26T03:19:32;10.57;;;6.47;;
49310;SDS011;35177;45.900;5.946;2023-06-26T03:21:57;8.63;;;6.22;;
49310;SDS011;35177;45.900;5.946;2023-06-26T03:24:23;8.55;;;6.03;;
49310;SDS011;35177;45.900;5.946;2023-06-26T03:26:48;10.50;;;6.90;;
49310;SDS011;35177;45.900;5.946;2023-06-26T03:29:14;8.77;;;7.13;;
49310;SDS011;35177;45.900;5.946;2023-06-26T03:31:39;8.75;;;6.45;;
49310;SDS011;35177;45.900;5.946;2023-06-26T03:34:05;9.55;;;6.80;;
49310;SDS011;35177;45.900;5.946;2023-06-26T03:36:30;11.25;;;7.05;;
49310;SDS011;35177;45.900;5.946;2023-06-26T03:38:55;7.47;;;5.90;;
49310;SDS011;35177;45.900;5.946;2023-06-26T03:41:22;12.85;;;6.57;;
49310;SDS011;35177;45.900;5.946;2023-06-26T03:43:48;9.27;;;6.13;;
49310;SDS011;35177;45.900;5.946;2023-06-26T03:46:14;13.10;;;6.53;;
49310;SDS011;35177;45.900;5.946;2023-06-26T03:48:39;12.82;;;6.45;;
49310;SDS011;35177;45.900;5.946;2023-06-26T03:51:05;9.60;;;6.07;;
49310;SDS011;35177;45.900;5.946;2023-06-26T03:53:32;14.63;;;6.22;;
49310;SDS011;35177;45.900;5.946;2023-06-26T03:55:57;9.90;;;6.82;;
49310;SDS011;35177;45.900;5.946;2023-06-26T03:58:23;15.65;;;5.95;;
49310;SDS011;35177;45.900;5.946;2023-06-26T04:00:50;10.35;;;5.82;;
49310;SDS011;35177;45.900;5.946;2023-06-26T04:03:15;10.80;;;6.20;;
49310;SDS011;35177;45.900;5.946;2023-06-26T04:05:41;10.80;;;6.90;;
49310;SDS011;35177;45.900;5.946;2023-06-26T04:08:06;12.60;;;7.03;;
49310;SDS011;35177;45.900;5.946;2023-06-26T04:10:32;12.55;;;6.93;;
49310;SDS011;35177;45.900;5.946;2023-06-26T04:12:58;12.93;;;7.25;;
49310;SDS011;35177;45.900;5.946;2023-06-26T04:15:23;13.68;;;6.93;;
49310;SDS011;35177;45.900;5.946;2023-06-26T04:17:49;8.23;;;6.70;;
49310;SDS011;35177;45.900;5.946;2023-06-26T04:20:14;9.85;;;6.25;;
49310;SDS011;35177;45.900;5.946;2023-06-26T04:22:40;9.80;;;6.60;;
49310;SDS011;35177;45.900;5.946;2023-06-26T04:25:05;9.38;;;6.55;;
49310;SDS011;35177;45.900;5.946;2023-06-26T04:27:31;10.20;;;6.85;;
49310;SDS011;35177;45.900;5.946;2023-06-26T04:29:56;11.10;;;6.60;;
49310;SDS011;35177;45.900;5.946;2023-06-26T04:32:22;11.20;;;7.05;;
49310;SDS011;35177;45.900;5.946;2023-06-26T04:34:48;10.57;;;6.78;;
49310;SDS011;35177;45.900;5.946;2023-06-26T04:37:14;11.35;;;6.80;;
49310;SDS011;35177;45.900;5.946;2023-06-26T04:39:42;9.43;;;6.75;;
49310;SDS011;35177;45.900;5.946;2023-06-26T04:42:08;9.27;;;6.15;;
49310;SDS011;35177;45.900;5.946;2023-06-26T04:44:34;11.73;;;6.55;;
49310;SDS011;35177;45.900;5.946;2023-06-26T04:47:00;8.82;;;6.40;;
49310;SDS011;35177;45.900;5.946;2023-06-26T04:49:25;9.77;;;6.00;;
49310;SDS011;35177;45.900;5.946;2023-06-26T04:51:52;9.07;;;6.43;;
49310;SDS011;35177;45.900;5.946;2023-06-26T04:54:18;12.10;;;6.53;;
49310;SDS011;35177;45.900;5.946;2023-06-26T04:56:44;8.23;;;5.68;;
49310;SDS011;35177;45.900;5.946;2023-06-26T04:59:12;10.50;;;5.85;;
49310;SDS011;35177;45.900;5.946;2023-06-26T05:01:38;7.28;;;5.65;;
49310;SDS011;35177;45.900;5.946;2023-06-26T05:04:04;6.45;;;5.18;;
49310;SDS011;35177;45.900;5.946;2023-06-26T05:06:30;8.45;;;5.82;;
49310;SDS011;35177;45.900;5.946;2023-06-26T05:08:56;5.45;;;4.90;;
49310;SDS011;35177;45.900;5.946;2023-06-26T05:11:21;9.20;;;6.47;;
49310;SDS011;35177;45.900;5.946;2023-06-26T05:13:48;6.70;;;5.60;;
49310;SDS011;35177;45.900;5.946;2023-06-26T05:16:13;8.32;;;6.10;;
49310;SDS011;35177;45.900;5.946;2023-06-26T05:18:39;7.50;;;5.50;;
49310;SDS011;35177;45.900;5.946;2023-06-26T05:21:04;7.70;;;5.82;;
49310;SDS011;35177;45.900;5.946;2023-06-26T05:23:31;9.25;;;5.88;;
49310;SDS011;35177;45.900;5.946;2023-06-26T05:25:57;8.52;;;6.07;;
49310;SDS011;35177;45.900;5.946;2023-06-26T05:28:23;7.65;;;5.70;;
49310;SDS011;35177;45.900;5.946;2023-06-26T05:30:51;9.20;;;6.13;;
49310;SDS011;35177;45.900;5.946;2023-06-26T05:33:17;8.30;;;5.93;;
49310;SDS011;35177;45.900;5.946;2023-06-26T05:35:48;6.28;;;5.45;;
49310;SDS011;35177;45.900;5.946;2023-06-26T05:38:14;9.13;;;6.10;;
49310;SDS011;35177;45.900;5.946;2023-06-26T05:40:40;10.07;;;5.72;;
49310;SDS011;35177;45.900;5.946;2023-06-26T05:43:06;9.05;;;5.50;;
49310;SDS011;35177;45.900;5.946;2023-06-26T05:45:32;7.28;;;6.00;;
49310;SDS011;35177;45.900;5.946;2023-06-26T05:47:58;8.13;;;5.60;;
49310;SDS011;35177;45.900;5.946;2023-06-26T05:50:24;8.30;;;6.22;;
49310;SDS011;35177;45.900;5.946;2023-06-26T05:52:50;9.68;;;6.45;;
49310;SDS011;35177;45.900;5.946;2023-06-26T05:55:16;8.85;;;6.07;;
49310;SDS011;35177;45.900;5.946;2023-06-26T05:57:42;8.40;;;5.60;;
49310;SDS011;35177;45.900;5.946;2023-06-26T06:00:08;6.40;;;4.95;;
49310;SDS011;35177;45.900;5.946;2023-06-26T06:02:37;9.05;;;5.90;;
49310;SDS011;35177;45.900;5.946;2023-06-26T06:05:03;10.02;;;6.03;;
49310;SDS011;35177;45.900;5.946;2023-06-26T06:07:28;7.78;;;6.18;;
49310;SDS011;35177;45.900;5.946;2023-06-26T06:09:54;9.05;;;6.80;;
49310;SDS011;35177;45.900;5.946;2023-06-26T06:12:19;8.80;;;5.82;;
49310;SDS011;35177;45.900;5.946;2023-06-26T06:14:45;6.78;;;5.30;;
49310;SDS011;35177;45.900;5.946;2023-06-26T06:17:10;8.07;;;6.43;;
49310;SDS011;35177;45.900;5.946;2023-06-26T06:19:36;9.88;;;5.50;;
49310;SDS011;35177;45.900;5.946;2023-06-26T06:22:01;7.28;;;5.60;;
49310;SDS011;35177;45.900;5.946;2023-06-26T06:24:27;7.80;;;5.20;;
49310;SDS011;35177;45.900;5.946;2023-06-26T06:26:52;8.68;;;5.82;;
49310;SDS011;35177;45.900;5.946;2023-06-26T06:29:18;7.22;;;5.68;;
49310;SDS011;35177;45.900;5.946;2023-06-26T06:31:44;9.45;;;5.72;;
49310;SDS011;35177;45.900;5.946;2023-06-26T06:34:10;8.55;;;5.88;;
49310;SDS011;35177;45.900;5.946;2023-06-26T06:36:35;6.85;;;5.68;;
49310;SDS011;35177;45.900;5.946;2023-06-26T06:39:01;8.55;;;5.70;;
49310;SDS011;35177;45.900;5.946;2023-06-26T06:41:26;6.65;;;5.75;;
49310;SDS011;35177;45.900;5.946;2023-06-26T06:43:52;7.32;;;5.55;;
49310;SDS011;35177;45.900;5.946;2023-06-26T06:46:17;16.67;;;5.88;;
49310;SDS011;35177;45.900;5.946;2023-06-26T06:48:42;5.70;;;5.10;;
49310;SDS011;35177;45.900;5.946;2023-06-26T06:51:08;8.18;;;5.65;;
49310;SDS011;35177;45.900;5.946;2023-06-26T06:53:33;7.40;;;5.53;;
49310;SDS011;35177;45.900;5.946;2023-06-26T06:55:59;8.25;;;5.35;;
49310;SDS011;35177;45.900;5.946;2023-06-26T06:58:24;7.00;;;5.65;;
49310;SDS011;35177;45.900;5.946;2023-06-26T07:00:50;7.85;;;5.60;;
49310;SDS011;35177;45.900;5.946;2023-06-26T07:03:18;7.25;;;5.80;;
49310;SDS011;35177;45.900;5.946;2023-06-26T07:05:44;7.25;;;5.63;;
49310;SDS011;35177;45.900;5.946;2023-06-26T07:08:09;6.22;;;5.10;;
49310;SDS011;35177;45.900;5.946;2023-06-26T07:10:35;8.98;;;5.47;;
49310;SDS011;35177;45.900;5.946;2023-06-26T07:13:00;8.32;;;5.97;;
49310;SDS011;35177;45.900;5.946;2023-06-26T07:15:27;9.23;;;5.32;;
49310;SDS011;35177;45.900;5.946;2023-06-26T07:17:52;8.05;;;5.68;;
49310;SDS011;35177;45.900;5.946;2023-06-26T07:20:18;6.47;;;5.22;;
49310;SDS011;35177;45.900;5.946;2023-06-26T07:22:43;6.95;;;4.95;;
49310;SDS011;35177;45.900;5.946;2023-06-26T07:25:12;6.35;;;4.75;;
49310;SDS011;35177;45.900;5.946;2023-06-26T07:27:38;8.07;;;5.45;;
49310;SDS011;35177;45.900;5.946;2023-06-26T07:30:04;10.02;;;6.15;;
49310;SDS011;35177;45.900;5.946;2023-06-26T07:32:30;7.40;;;5.32;;
49310;SDS011;35177;45.900;5.946;2023-06-26T07:34:56;7.90;;;5.55;;
49310;SDS011;35177;45.900;5.946;2023-06-26T07:37:21;9.65;;;5.85;;
49310;SDS011;35177;45.900;5.946;2023-06-26T07:39:47;6.53;;;5.25;;
49310;SDS011;35177;45.900;5.946;2023-06-26T07:42:14;7.38;;;5.50;;
49310;SDS011;35177;45.900;5.946;2023-06-26T07:44:41;9.57;;;5.93;;
49310;SDS011;35177;45.900;5.946;2023-06-26T07:47:07;8.18;;;5.28;;
49310;SDS011;35177;45.900;5.946;2023-06-26T07:49:32;7.53;;;5.43;;
49310;SDS011;35177;45.900;5.946;2023-06-26T07:51:58;7.38;;;5.65;;
49310;SDS011;35177;45.900;5.946;2023-06-26T07:54:23;9.23;;;5.80;;
49310;SDS011;35177;45.900;5.946;2023-06-26T07:59:28;9.10;;;5.45;;
49310;SDS011;35177;45.900;5.946;2023-06-26T08:01:55;8.55;;;6.13;;
49310;SDS011;35177;45.900;5.946;2023-06-26T08:04:23;7.35;;;5.05;;
49310;SDS011;35177;45.900;5.946;2023-06-26T08:06:50;6.68;;;5.65;;
49310;SDS011;35177;45.900;5.946;2023-06-26T08:09:17;6.90;;;5.45;;
49310;SDS011;35177;45.900;5.946;2023-06-26T08:11:44;8.82;;;5.63;;
49310;SDS011;35177;45.900;5.946;2023-06-26T08:14:10;6.75;;;5.20;;
49310;SDS011;35177;45.900;5.946;2023-06-26T08:16:37;7.53;;;5.35;;
49310;SDS011;35177;45.900;5.946;2023-06-26T08:19:04;7.40;;;5.97;;
49310;SDS011;35177;45.900;5.946;2023-06-26T08:21:29;6.43;;;5.22;;
49310;SDS011;35177;45.900;5.946;2023-06-26T08:23:55;6.53;;;4.75;;
49310;SDS011;35177;45.900;5.946;2023-06-26T08:26:20;7.63;;;5.07;;
49310;SDS011;35177;45.900;5.946;2023-06-26T08:28:46;6.47;;;5.20;;
49310;SDS011;35177;45.900;5.946;2023-06-26T08:31:11;7.35;;;4.88;;
49310;SDS011;35177;45.900;5.946;2023-06-26T08:33:38;6.13;;;4.60;;
49310;SDS011;35177;45.900;5.946;2023-06-26T08:36:03;6.40;;;5.00;;
49310;SDS011;35177;45.900;5.946;2023-06-26T08:38:29;8.63;;;5.28;;
49310;SDS011;35177;45.900;5.946;2023-06-26T08:40:54;7.05;;;4.93;;
49310;SDS011;35177;45.900;5.946;2023-06-26T08:43:20;6.35;;;4.75;;
49310;SDS011;35177;45.900;5.946;2023-06-26T08:45:47;7.32;;;4.95;;
49310;SDS011;35177;45.900;5.946;2023-06-26T08:48:16;7.95;;;4.85;;
49310;SDS011;35177;45.900;5.946;2023-06-26T08:50:42;5.50;;;4.55;;
49310;SDS011;35177;45.900;5.946;2023-06-26T08:56:05;6.45;;;4.70;;
49310;SDS011;35177;45.900;5.946;2023-06-26T08:58:32;6.28;;;4.55;;
49310;SDS011;35177;45.900;5.946;2023-06-26T09:00:58;8.80;;;5.47;;
49310;SDS011;35177;45.900;5.946;2023-06-26T09:03:25;5.63;;;4.70;;
49310;SDS011;35177;45.900;5.946;2023-06-26T09:05:51;6.97;;;5.07;;
49310;SDS011;35177;45.900;5.946;2023-06-26T09:08:17;6.50;;;4.40;;
49310;SDS011;35177;45.900;5.946;2023-06-26T09:10:42;5.22;;;4.25;;
49310;SDS011;35177;45.900;5.946;2023-06-26T09:13:08;5.57;;;4.50;;
49310;SDS011;35177;45.900;5.946;2023-06-26T09:15:37;5.18;;;4.60;;
49310;SDS011;35177;45.900;5.946;2023-06-26T09:18:04;6.95;;;5.13;;
49310;SDS011;35177;45.900;5.946;2023-06-26T09:20:30;6.57;;;4.90;;
49310;SDS011;35177;45.900;5.946;2023-06-26T09:22:58;7.13;;;4.70;;
49310;SDS011;35177;45.900;5.946;2023-06-26T09:25:24;7.72;;;4.78;;
49310;SDS011;35177;45.900;5.946;2023-06-26T09:27:50;6.13;;;5.15;;
49310;SDS011;35177;45.900;5.946;2023-06-26T09:30:18;5.53;;;4.68;;
49310;SDS011;35177;45.900;5.946;2023-06-26T09:32:43;6.78;;;4.90;;
49310;SDS011;35177;45.900;5.946;2023-06-26T09:35:10;8.93;;;4.63;;
49310;SDS011;35177;45.900;5.946;2023-06-26T09:37:35;13.80;;;5.65;;
49310;SDS011;35177;45.900;5.946;2023-06-26T09:40:01;7.72;;;4.78;;
49310;SDS011;35177;45.900;5.946;2023-06-26T09:42:28;6.72;;;4.88;;
49310;SDS011;35177;45.900;5.946;2023-06-26T09:44:54;6.18;;;4.68;;
49310;SDS011;35177;45.900;5.946;2023-06-26T09:47:20;5.40;;;4.43;;
49310;SDS011;35177;45.900;5.946;2023-06-26T09:49:46;8.48;;;4.85;;
49310;SDS011;35177;45.900;5.946;2023-06-26T09:52:13;7.75;;;5.28;;
49310;SDS011;35177;45.900;5.946;2023-06-26T09:54:41;5.68;;;5.03;;
49310;SDS011;35177;45.900;5.946;2023-06-26T09:57:17;9.00;;;5.25;;
49310;SDS011;35177;45.900;5.946;2023-06-26T09:59:44;5.93;;;4.78;;
49310;SDS011;35177;45.900;5.946;2023-06-26T10:02:12;9.20;;;5.43;;
49310;SDS011;35177;45.900;5.946;2023-06-26T10:04:38;5.25;;;4.68;;
49310;SDS011;35177;45.900;5.946;2023-06-26T10:07:04;9.18;;;5.18;;
49310;SDS011;35177;45.900;5.946;2023-06-26T10:09:31;6.65;;;5.03;;
49310;SDS011;35177;45.900;5.946;2023-06-26T10:14:41;5.95;;;4.70;;
49310;SDS011;35177;45.900;5.946;2023-06-26T10:17:10;7.45;;;4.70;;
49310;SDS011;35177;45.900;5.946;2023-06-26T10:19:38;6.53;;;4.75;;
49310;SDS011;35177;45.900;5.946;2023-06-26T10:22:06;10.40;;;4.53;;
49310;SDS011;35177;45.900;5.946;2023-06-26T10:24:33;6.30;;;4.93;;
49310;SDS011;35177;45.900;5.946;2023-06-26T10:27:04;5.90;;;4.57;;
49310;SDS011;35177;45.900;5.946;2023-06-26T10:29:34;6.30;;;4.40;;
49310;SDS011;35177;45.900;5.946;2023-06-26T10:32:01;6.15;;;4.22;;
49310;SDS011;35177;45.900;5.946;2023-06-26T10:34:29;5.32;;;4.45;;
49310;SDS011;35177;45.900;5.946;2023-06-26T10:36:58;6.97;;;4.80;;
49310;SDS011;35177;45.900;5.946;2023-06-26T10:39:25;5.25;;;4.35;;
49310;SDS011;35177;45.900;5.946;2023-06-26T10:41:51;9.07;;;4.65;;
49310;SDS011;35177;45.900;5.946;2023-06-26T10:44:20;6.25;;;5.00;;
49310;SDS011;35177;45.900;5.946;2023-06-26T10:47:04;7.03;;;4.70;;
49310;SDS011;35177;45.900;5.946;2023-06-26T10:49:29;6.15;;;5.30;;
49310;SDS011;35177;45.900;5.946;2023-06-26T10:51:55;6.35;;;4.50;;
49310;SDS011;35177;45.900;5.946;2023-06-26T10:54:28;6.63;;;4.35;;
49310;SDS011;35177;45.900;5.946;2023-06-26T10:56:55;11.55;;;4.43;;
49310;SDS011;35177;45.900;5.946;2023-06-26T10:59:25;4.93;;;4.25;;
49310;SDS011;35177;45.900;5.946;2023-06-26T11:01:58;8.05;;;4.32;;
49310;SDS011;35177;45.900;5.946;2023-06-26T11:04:43;5.88;;;4.38;;
49310;SDS011;35177;45.900;5.946;2023-06-26T11:07:22;5.45;;;4.50;;
49310;SDS011;35177;45.900;5.946;2023-06-26T11:12:41;10.57;;;4.55;;
49310;SDS011;35177;45.900;5.946;2023-06-26T11:15:13;10.02;;;4.30;;
49310;SDS011;35177;45.900;5.946;2023-06-26T11:17:40;6.50;;;4.90;;
49310;SDS011;35177;45.900;5.946;2023-06-26T11:20:07;5.80;;;4.28;;
49310;SDS011;35177;45.900;5.946;2023-06-26T11:22:38;6.82;;;4.60;;
49310;SDS011;35177;45.900;5.946;2023-06-26T11:25:05;5.35;;;4.10;;
49310;SDS011;35177;45.900;5.946;2023-06-26T11:27:32;7.00;;;4.90;;
49310;SDS011;35177;45.900;5.946;2023-06-26T11:30:03;5.05;;;4.38;;
49310;SDS011;35177;45.900;5.946;2023-06-26T11:32:30;5.90;;;4.63;;
49310;SDS011;35177;45.900;5.946;2023-06-26T11:34:57;8.88;;;4.82;;
49310;SDS011;35177;45.900;5.946;2023-06-26T11:37:23;7.60;;;4.90;;
49310;SDS011;35177;45.900;5.946;2023-06-26T11:39:49;5.50;;;4.90;;
49310;SDS011;35177;45.900;5.946;2023-06-26T11:42:16;6.28;;;5.30;;
49310;SDS011;35177;45.900;5.946;2023-06-26T11:44:42;7.05;;;5.45;;
49310;SDS011;35177;45.900;5.946;2023-06-26T11:47:19;9.75;;;5.38;;
49310;SDS011;35177;45.900;5.946;2023-06-26T11:49:46;8.55;;;4.60;;
49310;SDS011;35177;45.900;5.946;2023-06-26T11:52:14;7.35;;;5.72;;
49310;SDS011;35177;45.900;5.946;2023-06-26T11:54:41;7.28;;;4.90;;
49310;SDS011;35177;45.900;5.946;2023-06-26T11:57:07;5.35;;;4.57;;
49310;SDS011;35177;45.900;5.946;2023-06-26T12:02:00;8.27;;;5.05;;
49310;SDS011;35177;45.900;5.946;2023-06-26T12:04:30;6.30;;;5.10;;
49310;SDS011;35177;45.900;5.946;2023-06-26T12:06:56;6.22;;;4.85;;
49310;SDS011;35177;45.900;5.946;2023-06-26T12:09:23;6.88;;;4.53;;
49310;SDS011;35177;45.900;5.946;2023-06-26T12:11:51;5.57;;;4.93;;
49310;SDS011;35177;45.900;5.946;2023-06-26T12:14:19;6.25;;;4.97;;
49310;SDS011;35177;45.900;5.946;2023-06-26T12:16:45;5.35;;;4.55;;
49310;SDS011;35177;45.900;5.946;2023-06-26T12:19:12;6.22;;;5.40;;
49310;SDS011;35177;45.900;5.946;2023-06-26T12:24:07;5.70;;;4.88;;
49310;SDS011;35177;45.900;5.946;2023-06-26T12:26:34;8.18;;;5.30;;
49310;SDS011;35177;45.900;5.946;2023-06-26T12:31:29;8.15;;;5.35;;
49310;SDS011;35177;45.900;5.946;2023-06-26T12:33:55;6.60;;;5.28;;
49310;SDS011;35177;45.900;5.946;2023-06-26T12:36:21;10.10;;;4.30;;
49310;SDS011;35177;45.900;5.946;2023-06-26T12:38:48;6.70;;;5.30;;
49310;SDS011;35177;45.900;5.946;2023-06-26T12:41:14;5.28;;;4.78;;
49310;SDS011;35177;45.900;5.946;2023-06-26T12:43:40;9.32;;;5.00;;
49310;SDS011;35177;45.900;5.946;2023-06-26T12:46:06;8.00;;;5.03;;
49310;SDS011;35177;45.900;5.946;2023-06-26T12:48:41;5.80;;;4.50;;
49310;SDS011;35177;45.900;5.946;2023-06-26T12:51:09;5.80;;;4.50;;
49310;SDS011;35177;45.900;5.946;2023-06-26T12:53:35;6.20;;;4.95;;
49310;SDS011;35177;45.900;5.946;2023-06-26T12:56:01;5.40;;;4.68;;
49310;SDS011;35177;45.900;5.946;2023-06-26T12:58:27;5.78;;;4.72;;
49310;SDS011;35177;45.900;5.946;2023-06-26T13:00:52;6.15;;;4.85;;
49310;SDS011;35177;45.900;5.946;2023-06-26T13:03:19;7.50;;;4.93;;
49310;SDS011;35177;45.900;5.946;2023-06-26T13:05:50;5.28;;;4.30;;
49310;SDS011;35177;45.900;5.946;2023-06-26T13:08:23;5.85;;;4.43;;
49310;SDS011;35177;45.900;5.946;2023-06-26T13:10:48;8.85;;;4.80;;
49310;SDS011;35177;45.900;5.946;2023-06-26T13:13:14;5.72;;;4.47;;
49310;SDS011;35177;45.900;5.946;2023-06-26T13:15:39;8.75;;;4.88;;
49310;SDS011;35177;45.900;5.946;2023-06-26T13:18:05;8.40;;;4.90;;
49310;SDS011;35177;45.900;5.946;2023-06-26T13:20:30;5.93;;;4.70;;
49310;SDS011;35177;45.900;5.946;2023-06-26T13:22:56;7.20;;;4.80;;
49310;SDS011;35177;45.900;5.946;2023-06-26T13:25:22;5.97;;;4.57;;
49310;SDS011;35177;45.900;5.946;2023-06-26T13:27:47;7.07;;;5.00;;
49310;SDS011;35177;45.900;5.946;2023-06-26T13:30:14;5.78;;;4.63;;
49310;SDS011;35177;45.900;5.946;2023-06-26T13:32:40;5.63;;;3.90;;
49310;SDS011;35177;45.900;5.946;2023-06-26T13:35:06;6.45;;;4.55;;
49310;SDS011;35177;45.900;5.946;2023-06-26T13:37:32;7.45;;;5.30;;
49310;SDS011;35177;45.900;5.946;2023-06-26T13:39:59;6.70;;;4.40;;
49310;SDS011;35177;45.900;5.946;2023-06-26T13:42:25;6.60;;;4.75;;
49310;SDS011;35177;45.900;5.946;2023-06-26T13:44:50;6.90;;;4.97;;
49310;SDS011;35177;45.900;5.946;2023-06-26T13:47:15;5.20;;;4.25;;
49310;SDS011;35177;45.900;5.946;2023-06-26T13:49:41;5.05;;;4.47;;
49310;SDS011;35177;45.900;5.946;2023-06-26T13:52:07;6.53;;;4.20;;
49310;SDS011;35177;45.900;5.946;2023-06-26T13:54:36;8.85;;;4.90;;
49310;SDS011;35177;45.900;5.946;2023-06-26T13:57:11;6.72;;;4.43;;
49310;SDS011;35177;45.900;5.946;2023-06-26T13:59:38;5.85;;;4.82;;
49310;SDS011;35177;45.900;5.946;2023-06-26T14:02:05;5.43;;;4.63;;
49310;SDS011;35177;45.900;5.946;2023-06-26T14:04:32;5.18;;;4.60;;
49310;SDS011;35177;45.900;5.946;2023-06-26T14:06:57;4.97;;;4.32;;
49310;SDS011;35177;45.900;5.946;2023-06-26T14:09:23;6.15;;;4.93;;
49310;SDS011;35177;45.900;5.946;2023-06-26T14:11:49;5.40;;;4.72;;
49310;SDS011;35177;45.900;5.946;2023-06-26T14:14:14;6.07;;;5.10;;
49310;SDS011;35177;45.900;5.946;2023-06-26T14:16:40;6.80;;;5.18;;
49310;SDS011;35177;45.900;5.946;2023-06-26T14:19:06;7.88;;;5.22;;
49310;SDS011;35177;45.900;5.946;2023-06-26T14:21:31;6.43;;;4.57;;
49310;SDS011;35177;45.900;5.946;2023-06-26T14:23:58;8.02;;;4.65;;
49310;SDS011;35177;45.900;5.946;2023-06-26T14:26:24;5.65;;;5.03;;
49310;SDS011;35177;45.900;5.946;2023-06-26T14:28:50;8.50;;;5.03;;
49310;SDS011;35177;45.900;5.946;2023-06-26T14:31:15;4.85;;;4.35;;
49310;SDS011;35177;45.900;5.946;2023-06-26T14:33:41;5.90;;;4.95;;
49310;SDS011;35177;45.900;5.946;2023-06-26T14:36:06;6.10;;;4.95;;
49310;SDS011;35177;45.900;5.946;2023-06-26T14:38:31;6.65;;;4.57;;
49310;SDS011;35177;45.900;5.946;2023-06-26T14:40:57;4.97;;;4.47;;
49310;SDS011;35177;45.900;5.946;2023-06-26T14:43:22;5.95;;;4.45;;
49310;SDS011;35177;45.900;5.946;2023-06-26T14:45:48;8.13;;;4.82;;
49310;SDS011;35177;45.900;5.946;2023-06-26T14:48:14;6.50;;;4.95;;
49310;SDS011;35177;45.900;5.946;2023-06-26T14:50:40;7.57;;;4.75;;
49310;SDS011;35177;45.900;5.946;2023-06-26T14:53:05;6.55;;;4.75;;
49310;SDS011;35177;45.900;5.946;2023-06-26T14:55:30;5.30;;;4.40;;
49310;SDS011;35177;45.900;5.946;2023-06-26T14:57:56;9.45;;;4.97;;
49310;SDS011;35177;45.900;5.946;2023-06-26T15:00:21;7.38;;;4.78;;
49310;SDS011;35177;45.900;5.946;2023-06-26T15:02:47;6.13;;;4.72;;
49310;SDS011;35177;45.900;5.946;2023-06-26T15:05:13;6.28;;;4.60;;